Time;durP1;ratioP1;P1;durP2;ratioP2;P2;SDS_P1;SDS_P2;PMS_P1;PMS_P2;Temp;Humidity;BMP_temperature;BMP_pressure;BME280_temperature;BME280_humidity;BME280_pressure;Samples;Min_cycle;Max_cycle;Signal;HPM_P1;HPM_P2
2023/07/06 00:05:43;;;;;;;4.38;2.00;;;;;;;15.98;46.06;97870.00;10521195;28;20048;-73
2023/07/06 00:11:04;;;;;;;5.07;1.98;;;;;;;15.96;46.45;97878.34;10544423;28;20044;-73
2023/07/06 00:16:26;;;;;;;3.88;1.60;;;;;;;15.93;46.45;97874.00;10501555;28;20155;-73
2023/07/06 00:21:49;;;;;;;2.40;1.52;;;;;;;15.93;46.50;97880.34;10515500;28;20067;-73
2023/07/06 00:27:09;;;;;;;3.53;1.80;;;;;;;15.92;46.26;97866.88;10500668;28;20063;-73
2023/07/06 00:32:32;;;;;;;4.05;1.90;;;;;;;15.92;46.40;97866.88;10514622;28;20051;-72
2023/07/06 00:37:54;;;;;;;5.60;1.70;;;;;;;15.90;46.16;97866.78;10514435;28;20116;-73
2023/07/06 00:43:20;;;;;;;2.92;1.60;;;;;;;15.89;46.20;97873.78;10514421;28;20044;-73
2023/07/06 00:48:44;;;;;;;5.03;1.63;;;;;;;15.88;46.22;97869.53;10514757;28;20079;-73
2023/07/06 00:54:07;;;;;;;4.53;1.80;;;;;;;15.90;46.28;97869.63;10514227;28;20067;-73
2023/07/06 00:59:29;;;;;;;4.50;1.95;;;;;;;15.87;46.13;97870.88;10499824;28;20044;-73
2023/07/06 01:04:51;;;;;;;4.53;1.85;;;;;;;15.84;46.07;97874.97;10513158;28;20493;-73
2023/07/06 01:10:13;;;;;;;7.45;1.85;;;;;;;15.78;45.92;97886.63;10513305;28;20047;-73
2023/07/06 01:15:38;;;;;;;3.03;1.38;;;;;;;15.71;46.10;97882.78;10512807;28;20067;-73
2023/07/06 01:21:19;;;;;;;3.28;1.50;;;;;;;15.63;46.74;97882.41;10527126;28;20383;-73
2023/07/06 01:26:57;;;;;;;3.55;1.23;;;;;;;15.59;46.60;97884.97;10526156;28;20071;-73
2023/07/06 01:32:22;;;;;;;3.60;1.40;;;;;;;15.57;46.49;97886.97;10508989;28;20474;-73
2023/07/06 01:37:45;;;;;;;4.07;1.98;;;;;;;15.44;46.61;97891.22;10525803;28;20116;-73
2023/07/06 01:43:06;;;;;;;3.33;1.55;;;;;;;15.35;46.90;97887.31;10497717;28;20123;-73
2023/07/06 01:48:27;;;;;;;4.90;1.52;;;;;;;15.33;46.85;97901.22;10497893;28;20078;-73
2023/07/06 01:54:00;;;;;;;3.80;1.83;;;;;;;15.35;46.91;97897.81;10511359;28;20496;-73
2023/07/06 01:59:21;;;;;;;2.65;1.48;;;;;;;15.48;47.13;97899.88;10512389;28;20575;-73
2023/07/06 02:04:43;;;;;;;4.05;1.52;;;;;;;15.53;46.98;97907.16;10497012;28;20080;-73
2023/07/06 02:10:05;;;;;;;2.72;1.52;;;;;;;15.60;47.16;97906.16;10511500;28;20068;-73
2023/07/06 02:15:27;;;;;;;4.60;1.48;;;;;;;15.62;47.15;97906.25;10510996;28;20423;-73
2023/07/06 02:20:48;;;;;;;3.50;1.40;;;;;;;15.59;47.29;97898.31;10510951;28;20064;-73
2023/07/06 02:26:09;;;;;;;2.83;1.80;;;;;;;15.55;47.20;97903.75;10510756;28;20043;-73
2023/07/06 02:31:30;;;;;;;3.38;1.67;;;;;;;15.54;47.11;97903.03;10482806;28;20127;-73
2023/07/06 02:36:54;;;;;;;3.75;1.60;;;;;;;15.47;47.16;97904.06;10524554;28;20055;-73
2023/07/06 02:42:15;;;;;;;2.78;1.30;;;;;;;15.41;47.41;97904.47;10510383;28;20048;-73
2023/07/06 02:47:36;;;;;;;4.47;1.70;;;;;;;15.33;47.64;97912.47;10510420;28;20047;-73
2023/07/06 02:52:57;;;;;;;4.43;1.60;;;;;;;15.26;47.52;97910.00;10504649;28;20065;-73
2023/07/06 02:58:18;;;;;;;4.28;1.50;;;;;;;15.24;47.54;97904.25;10518130;28;20086;-73
2023/07/06 03:03:39;;;;;;;5.07;1.67;;;;;;;15.24;47.67;97915.50;10503943;28;20505;-73
2023/07/06 03:08:59;;;;;;;3.70;1.50;;;;;;;15.28;47.43;97922.06;10547180;28;20124;-74
2023/07/06 03:14:25;;;;;;;2.97;1.40;;;;;;;15.29;47.57;97929.16;10531648;28;20500;-73
2023/07/06 03:19:46;;;;;;;2.33;1.48;;;;;;;15.33;47.63;97928.63;10518290;28;20461;-72
2023/07/06 03:25:10;;;;;;;3.15;1.30;;;;;;;15.36;47.77;97935.84;10531244;28;20085;-73
2023/07/06 03:30:31;;;;;;;3.42;1.55;;;;;;;15.50;47.70;97936.56;10517652;28;20094;-73
2023/07/06 03:35:57;;;;;;;5.20;2.13;;;;;;;15.78;47.80;97934.47;10516766;28;20410;-73
2023/07/06 03:41:18;;;;;;;5.65;1.42;;;;;;;16.15;47.52;97945.47;10518305;28;20405;-73
2023/07/06 03:46:39;;;;;;;3.85;1.30;;;;;;;16.54;47.22;97941.69;10502781;28;20553;-73
2023/07/06 03:52:03;;;;;;;5.13;1.50;;;;;;;17.00;46.72;97926.22;10513207;28;20040;-73
2023/07/06 03:57:24;;;;;;;3.05;1.50;;;;;;;17.43;46.43;97931.66;10532773;28;20180;-73
2023/07/06 04:02:44;;;;;;;3.47;1.30;;;;;;;17.73;45.57;97934.34;10514846;28;20485;-73
2023/07/06 04:08:08;;;;;;;3.03;1.42;;;;;;;17.87;45.33;97926.50;10515778;28;20040;-73
2023/07/06 04:13:29;;;;;;;3.88;1.60;;;;;;;17.98;45.17;97924.81;10529777;28;20064;-74
2023/07/06 04:18:50;;;;;;;3.85;1.73;;;;;;;17.98;44.64;97925.53;10529207;28;20040;-73
2023/07/06 04:24:11;;;;;;;5.57;1.73;;;;;;;17.89;44.87;97926.56;10529256;28;20048;-73
2023/07/06 04:29:32;;;;;;;4.72;1.25;;;;;;;17.74;44.22;97930.16;10543898;28;20127;-73
2023/07/06 04:34:52;;;;;;;3.45;1.63;;;;;;;17.53;44.78;97933.47;10528495;28;20071;-73
2023/07/06 04:40:13;;;;;;;5.78;1.90;;;;;;;17.33;45.07;97939.66;10500318;28;20075;-73
2023/07/06 04:45:36;;;;;;;5.07;1.40;;;;;;;17.22;45.19;97940.59;10528411;28;20064;-74
2023/07/06 04:50:56;;;;;;;3.47;1.83;;;;;;;17.37;44.84;97951.16;10513904;28;20051;-75
2023/07/06 04:56:17;;;;;;;4.28;1.50;;;;;;;17.75;44.96;97948.56;10527678;28;20064;-73
2023/07/06 05:01:38;;;;;;;3.50;1.45;;;;;;;18.23;44.13;97947.03;10542747;28;20154;-73
2023/07/06 05:06:59;;;;;;;4.13;1.55;;;;;;;18.72;43.80;97951.09;10527127;28;20082;-73
2023/07/06 05:12:19;;;;;;;5.57;1.70;;;;;;;19.16;42.67;97952.78;10526164;28;20071;-73
2023/07/06 05:17:40;;;;;;;3.47;1.20;;;;;;;19.67;41.95;97963.13;10526726;28;20076;-74
2023/07/06 05:23:03;;;;;;;3.55;1.30;;;;;;;20.16;41.62;97950.63;10526778;28;20112;-74
2023/07/06 05:28:24;;;;;;;;;;;;;;;20.61;40.08;97954.22;10513299;28;20099;-73
2023/07/06 05:33:46;;;;;;;4.43;1.92;;;;;;;20.99;40.05;97957.50;10526274;28;20007;-73
2023/07/06 05:39:07;;;;;;;5.65;1.60;;;;;;;21.50;39.05;97961.84;10526362;28;20516;-73
2023/07/06 05:44:27;;;;;;;3.13;1.33;;;;;;;21.76;38.37;97964.69;10525711;28;20048;-73
2023/07/06 05:49:48;;;;;;;3.58;1.42;;;;;;;22.21;37.52;97975.16;10541064;28;20114;-74
2023/07/06 05:55:09;;;;;;;5.10;1.75;;;;;;;22.53;36.54;97966.69;10511433;28;20116;-74
2023/07/06 06:00:36;;;;;;;2.92;1.10;;;;;;;23.06;36.25;97974.31;10525457;28;20070;-74
2023/07/06 06:05:58;;;;;;;5.38;1.60;;;;;;;23.67;35.25;97972.06;10484313;28;20068;-74
2023/07/06 06:11:21;;;;;;;3.87;1.63;;;;;;;24.26;34.36;97979.53;10498288;28;20559;-73
2023/07/06 06:16:42;;;;;;;4.22;1.40;;;;;;;24.77;33.56;97983.25;10483611;28;20506;-73
2023/07/06 06:22:04;;;;;;;3.50;1.30;;;;;;;25.08;32.63;97980.84;10483127;28;20071;-74
2023/07/06 06:27:24;;;;;;;2.90;1.63;;;;;;;25.37;31.45;97996.25;10482876;28;20090;-74
2023/07/06 06:32:46;;;;;;;6.10;1.60;;;;;;;25.68;30.81;97986.63;10482839;28;20286;-73
2023/07/06 06:38:07;;;;;;;3.55;1.40;;;;;;;26.09;30.22;97997.81;10482677;28;20161;-74
2023/07/06 06:43:27;;;;;;;4.05;1.50;;;;;;;26.58;29.96;98001.88;10497288;28;20497;-74
2023/07/06 06:48:48;;;;;;;3.50;1.50;;;;;;;27.08;29.22;97995.81;10482427;28;20486;-74
2023/07/06 06:54:10;;;;;;;5.25;1.50;;;;;;;27.29;27.97;97998.78;10468361;28;20068;-74
2023/07/06 06:59:32;;;;;;;3.30;1.40;;;;;;;27.86;27.84;98001.91;10482393;28;20040;-74
2023/07/06 07:04:58;;;;;;;2.97;1.30;;;;;;;28.12;27.06;98004.84;10515667;28;20490;-74
2023/07/06 07:10:19;;;;;;;2.55;1.20;;;;;;;28.17;26.39;97994.09;10511123;28;20123;-74
2023/07/06 07:15:39;;;;;;;2.28;1.20;;;;;;;29.03;25.78;98001.31;10509664;28;20075;-74
2023/07/06 07:21:01;;;;;;;2.92;1.63;;;;;;;29.47;24.80;97999.06;10538319;28;20122;-74
2023/07/06 07:26:22;;;;;;;5.65;1.40;;;;;;;29.50;23.82;97998.34;10509656;28;20509;-74
2023/07/06 07:31:43;;;;;;;3.40;1.47;;;;;;;29.40;23.33;97998.38;10509723;28;20044;-74
2023/07/06 07:37:07;;;;;;;6.37;1.63;;;;;;;29.06;22.60;97996.31;10498992;28;20036;-74
2023/07/06 07:42:30;;;;;;;2.45;1.13;;;;;;;29.55;22.84;97999.78;10516991;28;20064;-74
2023/07/06 07:47:51;;;;;;;4.35;1.20;;;;;;;30.36;21.76;98004.41;10503334;28;20484;-74
2023/07/06 07:53:12;;;;;;;3.40;1.25;;;;;;;30.55;21.94;98004.25;10530129;28;20481;-74
2023/07/06 07:58:34;;;;;;;4.93;1.80;;;;;;;31.01;21.09;97998.13;10516079;28;20048;-74
2023/07/06 08:03:57;;;;;;;4.75;1.42;;;;;;;30.17;21.04;98005.97;10515609;28;20048;-74
2023/07/06 08:09:18;;;;;;;2.53;0.90;;;;;;;30.84;20.83;98002.59;10502497;28;20068;-74
2023/07/06 08:14:41;;;;;;;2.30;1.10;;;;;;;31.59;20.43;98004.72;10529216;28;20044;-74
2023/07/06 08:20:11;;;;;;;4.78;1.20;;;;;;;32.03;20.40;98013.53;10529577;28;20440;-74
2023/07/06 08:25:52;;;;;;;2.38;1.13;;;;;;;31.15;19.46;98005.88;10519013;28;20572;-74
2023/07/06 08:31:16;;;;;;;2.70;1.55;;;;;;;31.21;19.30;98019.56;10514869;28;20097;-74
2023/07/06 08:36:40;;;;;;;5.82;1.30;;;;;;;31.12;20.18;98007.38;10516043;28;20127;-74
2023/07/06 08:42:02;;;;;;;2.72;0.88;;;;;;;31.74;19.78;98019.66;10528315;28;20098;-74
2023/07/06 08:47:25;;;;;;;;;;;;;;;32.74;18.91;98012.50;10500449;28;20093;-74
2023/07/06 08:52:48;;;;;;;2.40;1.25;;;;;;;33.00;18.04;98014.94;10514637;28;19920;-74
2023/07/06 08:58:12;;;;;;;3.75;1.05;;;;;;;31.38;18.82;98009.28;10511656;28;20044;-76
2023/07/06 09:03:39;;;;;;;3.20;1.30;;;;;;;32.14;18.96;98015.56;10514062;28;20101;-76
2023/07/06 09:09:03;;;;;;;2.13;0.95;;;;;;;32.62;18.24;98013.41;10513778;28;20489;-76
2023/07/06 09:14:28;;;;;;;4.40;1.10;;;;;;;33.17;17.53;98012.47;10513352;28;20044;-76
2023/07/06 09:19:51;;;;;;;3.55;1.10;;;;;;;32.29;17.37;98010.28;10527595;28;20040;-76
2023/07/06 09:25:25;;;;;;;5.07;1.05;;;;;;;32.36;18.05;98013.81;10512850;28;20051;-76
2023/07/06 09:30:50;;;;;;;5.85;1.25;;;;;;;33.42;17.90;98009.88;10513163;28;20474;-75
2023/07/06 09:36:23;;;;;;;2.10;1.00;;;;;;;34.38;17.03;98014.38;10498887;28;20044;-76
2023/07/06 09:41:45;;;;;;;3.47;1.08;;;;;;;33.42;16.81;98023.63;10513370;28;20075;-76
2023/07/06 09:47:09;;;;;;;2.35;1.10;;;;;;;32.95;17.57;98013.59;10511883;28;20047;-75
2023/07/06 09:52:30;;;;;;;3.42;1.20;;;;;;;33.52;17.69;98020.53;10511800;28;20044;-75
2023/07/06 09:57:50;;;;;;;4.68;1.42;;;;;;;34.15;16.91;98022.81;10540056;28;20040;-74
2023/07/06 10:03:28;;;;;;;3.33;1.20;;;;;;;33.84;16.01;98016.94;10525306;28;20052;-74
2023/07/06 10:08:55;;;;;;;2.47;1.10;;;;;;;33.02;16.84;98000.47;10512073;28;20119;-74
2023/07/06 10:14:33;;;;;;;2.55;1.10;;;;;;;32.83;16.30;98008.03;10511253;28;20040;-74
2023/07/06 10:19:58;;;;;;;5.20;1.30;;;;;;;32.22;17.49;97999.56;10539850;28;20040;-74
2023/07/06 10:25:34;;;;;;;2.03;0.82;;;;;;;32.49;17.25;97999.91;10497107;28;20097;-74
2023/07/06 10:30:56;;;;;;;2.90;1.15;;;;;;;31.26;17.63;97998.59;10512280;28;20047;-74
2023/07/06 10:36:17;;;;;;;2.55;1.27;;;;;;;31.01;17.83;97994.50;10510212;28;20040;-74
2023/07/06 10:41:40;;;;;;;2.40;1.05;;;;;;;30.15;18.76;98003.09;10539331;28;20116;-74
2023/07/06 10:47:02;;;;;;;2.20;0.90;;;;;;;30.32;18.72;98004.44;10496636;28;20071;-74
2023/07/06 10:52:36;;;;;;;2.30;1.02;;;;;;;30.05;19.63;98006.72;10496650;28;20055;-73
2023/07/06 10:58:13;;;;;;;4.15;0.95;;;;;;;30.47;19.17;97997.09;10510359;28;20040;-74
2023/07/06 11:03:33;;;;;;;2.75;1.13;;;;;;;30.23;18.79;98003.06;10496863;28;20082;-74
2023/07/06 11:09:14;;;;;;;4.75;1.05;;;;;;;30.59;19.64;98007.81;10496230;28;20093;-74
2023/07/06 11:14:39;;;;;;;2.30;1.10;;;;;;;31.53;19.09;98001.16;10532070;28;20397;-74
2023/07/06 11:20:13;;;;;;;2.72;1.23;;;;;;;31.96;18.15;98003.56;10518319;28;20040;-74
2023/07/06 11:25:34;;;;;;;3.28;1.17;;;;;;;32.54;17.94;97993.31;10531433;28;20044;-74
2023/07/06 11:31:33;;;;;;;1.50;1.00;;;;;;;32.32;17.89;97996.53;10546244;28;20044;-74
2023/07/06 11:37:23;;;;;;;4.45;1.02;;;;;;;31.90;18.03;97993.50;10502725;28;20049;-74
2023/07/06 11:43:12;;;;;;;2.28;1.33;;;;;;;32.15;17.69;97988.13;10533322;28;20405;-74
2023/07/06 11:48:49;;;;;;;2.30;1.17;;;;;;;32.49;17.44;97997.72;10545400;28;20584;-74
2023/07/06 11:54:29;;;;;;;4.35;1.13;;;;;;;32.95;17.54;97989.75;10517021;28;20470;-74
2023/07/06 12:05:46;;;;;;;2.30;1.23;;;;;;;32.17;16.89;97987.38;10532138;28;20052;-75
2023/07/06 12:11:15;;;;;;;4.57;1.20;;;;;;;31.69;17.84;97988.72;10502921;28;20089;-75
2023/07/06 12:16:40;;;;;;;3.75;1.77;;;;;;;31.03;18.07;97977.91;10502053;28;20090;-74
2023/07/06 12:22:01;;;;;;;2.60;1.30;;;;;;;29.88;18.51;97982.38;10514794;28;20550;-74
2023/07/06 12:27:22;;;;;;;1.60;1.00;;;;;;;29.64;19.25;97975.31;10515042;28;20047;-74
2023/07/06 12:32:47;;;;;;;2.07;1.17;;;;;;;30.37;18.87;97971.28;10528573;28;20044;-74
2023/07/06 12:38:13;;;;;;;2.17;1.10;;;;;;;30.71;18.33;97972.47;10515077;28;20044;-74
2023/07/06 12:43:35;;;;;;;1.88;1.20;;;;;;;30.64;18.39;97971.06;10514432;28;20044;-74
2023/07/06 12:48:59;;;;;;;;;;;;;;;30.64;18.53;97965.28;10543652;28;20047;-74
2023/07/06 12:54:25;;;;;;;3.63;1.38;;;;;;;29.44;19.30;97960.28;10514474;28;19920;-74
2023/07/06 12:59:49;;;;;;;3.88;1.30;;;;;;;29.72;19.77;97965.19;10513898;28;20044;-74
2023/07/06 13:05:22;;;;;;;2.08;1.10;;;;;;;30.20;19.46;97959.16;10513702;28;20044;-74
2023/07/06 13:10:43;;;;;;;2.67;1.65;;;;;;;30.30;19.25;97958.34;10514168;28;20044;-74
2023/07/06 13:16:08;;;;;;;2.87;1.20;;;;;;;30.32;18.97;97938.22;10498939;28;20044;-74
2023/07/06 13:21:33;;;;;;;2.08;1.25;;;;;;;30.49;18.99;97933.72;10500121;28;20073;-74
2023/07/06 13:26:54;;;;;;;2.25;1.20;;;;;;;30.69;18.97;97943.66;10526739;28;20054;-74
2023/07/06 13:32:20;;;;;;;4.22;1.40;;;;;;;29.83;19.01;97938.53;10526430;28;20512;-74
2023/07/06 13:37:43;;;;;;;2.65;1.25;;;;;;;28.86;19.46;97947.50;10526330;28;20116;-74
2023/07/06 13:43:04;;;;;;;4.38;1.50;;;;;;;27.86;20.41;97938.81;10526319;28;20048;-72
2023/07/06 13:48:27;;;;;;;1.90;1.25;;;;;;;28.30;20.59;97937.47;10526009;28;20044;-72
2023/07/06 13:53:50;;;;;;;2.45;1.33;;;;;;;28.32;20.52;97940.34;10511440;28;20040;-72
2023/07/06 13:59:12;;;;;;;2.97;1.23;;;;;;;28.28;20.80;97935.31;10525992;28;20047;-74
2023/07/06 14:04:33;;;;;;;2.87;1.50;;;;;;;28.63;20.70;97936.00;10525247;28;20059;-72
2023/07/06 14:09:54;;;;;;;4.60;1.48;;;;;;;28.82;20.09;97941.72;10511530;28;20047;-74
2023/07/06 14:15:18;;;;;;;3.33;1.53;;;;;;;29.03;19.90;97937.41;10511207;28;20040;-74
2023/07/06 14:20:46;;;;;;;3.20;1.40;;;;;;;29.18;19.79;97924.44;10511710;28;20059;-73
2023/07/06 14:26:09;;;;;;;1.60;1.20;;;;;;;29.15;20.41;97922.28;10525761;28;20056;-73
2023/07/06 14:31:33;;;;;;;2.20;1.50;;;;;;;28.92;20.61;97922.34;10524559;28;20074;-73
2023/07/06 14:36:56;;;;;;;2.47;1.20;;;;;;;28.80;20.43;97922.34;10539480;28;20040;-73
2023/07/06 14:42:18;;;;;;;3.58;1.45;;;;;;;28.69;20.36;97918.78;10524779;28;20050;-73
2023/07/06 14:47:39;;;;;;;2.63;1.20;;;;;;;28.84;20.83;97918.75;10546126;28;20435;-73
2023/07/06 14:53:00;;;;;;;3.47;1.30;;;;;;;29.29;20.69;97922.94;10547921;28;20115;-73
2023/07/06 14:58:21;;;;;;;4.55;1.38;;;;;;;29.38;20.27;97912.13;10532585;28;20050;-73
2023/07/06 15:03:43;;;;;;;4.60;1.33;;;;;;;29.12;20.82;97920.84;10518590;28;20052;-73
2023/07/06 15:09:04;;;;;;;1.93;1.03;;;;;;;28.70;20.68;97919.50;10504486;28;20044;-73
2023/07/06 15:14:26;;;;;;;3.15;1.30;;;;;;;28.15;21.08;97916.63;10503760;28;20040;-73
2023/07/06 15:19:47;;;;;;;4.47;1.45;;;;;;;27.71;21.40;97926.63;10546596;28;20462;-73
2023/07/06 15:25:08;;;;;;;1.98;1.48;;;;;;;27.40;21.93;97914.28;10503729;28;20044;-73
2023/07/06 15:30:29;;;;;;;2.42;1.13;;;;;;;27.14;22.16;97908.47;10503369;28;20437;-73
2023/07/06 15:35:50;;;;;;;3.10;1.33;;;;;;;27.04;22.64;97909.88;10546406;28;20093;-71
2023/07/06 15:41:11;;;;;;;4.93;1.25;;;;;;;27.01;22.41;97905.50;10517009;28;20051;-72
2023/07/06 15:46:33;;;;;;;4.95;1.20;;;;;;;26.94;22.42;97912.66;10503146;28;20055;-74
2023/07/06 15:51:54;;;;;;;3.38;1.58;;;;;;;26.81;22.58;97899.66;10516416;28;20077;-72
2023/07/06 15:57:14;;;;;;;2.55;1.58;;;;;;;26.78;22.59;97903.97;10501106;28;20047;-74
2023/07/06 16:02:35;;;;;;;2.70;1.60;;;;;;;26.60;23.11;97895.25;10516007;28;20048;-71
2023/07/06 16:07:56;;;;;;;2.78;1.27;;;;;;;26.77;23.03;97905.38;10502037;28;20047;-72
2023/07/06 16:13:17;;;;;;;2.28;1.25;;;;;;;26.76;23.26;97906.81;10501338;28;20102;-74
2023/07/06 16:18:39;;;;;;;2.75;1.45;;;;;;;26.85;23.06;97899.72;10515902;28;20036;-74
2023/07/06 16:24:00;;;;;;;3.40;1.35;;;;;;;26.82;22.88;97898.25;10501138;28;20530;-75
2023/07/06 16:29:21;;;;;;;3.38;1.60;;;;;;;26.53;23.16;97906.66;10529153;28;20139;-75
2023/07/06 16:34:42;;;;;;;2.50;1.42;;;;;;;26.25;23.23;97900.72;10543745;28;20044;-75
2023/07/06 16:40:04;;;;;;;3.20;1.35;;;;;;;26.10;23.61;97905.59;10543565;28;20059;-73
2023/07/06 16:45:25;;;;;;;2.55;1.33;;;;;;;26.25;23.98;97912.16;10514521;28;20047;-73
2023/07/06 16:50:46;;;;;;;3.80;1.40;;;;;;;26.35;23.52;97903.66;10542853;28;20090;-73
2023/07/06 16:56:07;;;;;;;2.85;1.38;;;;;;;26.37;23.90;97911.53;10486348;28;20047;-73
2023/07/06 17:01:28;;;;;;;2.88;1.55;;;;;;;26.00;23.90;97911.22;10527490;28;20062;-73
2023/07/06 17:06:49;;;;;;;4.13;1.50;;;;;;;25.64;23.95;97911.53;10527177;28;20040;-75
2023/07/06 17:12:12;;;;;;;3.90;1.02;;;;;;;25.33;24.09;97910.50;10513193;28;20190;-75
2023/07/06 17:17:33;;;;;;;5.35;1.23;;;;;;;25.17;24.48;97908.16;10513729;28;20379;-75
2023/07/06 17:22:54;;;;;;;2.88;1.38;;;;;;;25.05;24.30;97920.13;10541721;28;20101;-74
2023/07/06 17:28:17;;;;;;;3.00;1.30;;;;;;;24.98;24.70;97915.72;10512930;28;20040;-74
2023/07/06 17:33:38;;;;;;;2.60;1.48;;;;;;;24.82;25.06;97921.25;10512711;28;20051;-73
2023/07/06 17:38:59;;;;;;;2.58;1.20;;;;;;;24.64;25.50;97920.97;10512201;28;20040;-73
2023/07/06 17:44:20;;;;;;;3.30;1.40;;;;;;;24.58;25.48;97930.16;10526182;28;20123;-74
2023/07/06 17:49:44;;;;;;;2.13;1.25;;;;;;;24.52;25.96;97932.94;10512006;28;20044;-74
2023/07/06 17:55:05;;;;;;;3.20;1.55;;;;;;;24.38;25.95;97935.53;10512431;28;20075;-74
2023/07/06 18:00:26;;;;;;;3.90;1.60;;;;;;;24.23;26.14;97943.84;10525370;28;20474;-74
2023/07/06 18:05:48;;;;;;;2.15;1.25;;;;;;;24.11;26.44;97946.47;10525060;28;20052;-73
2023/07/06 18:11:09;;;;;;;4.93;1.55;;;;;;;24.02;26.40;97933.47;10497488;28;20048;-73
2023/07/06 18:16:30;;;;;;;2.58;1.27;;;;;;;23.91;26.85;97940.41;10510909;28;20588;-74
2023/07/06 18:21:51;;;;;;;4.70;1.60;;;;;;;23.82;26.94;97950.22;10482740;28;20040;-74
2023/07/06 18:27:11;;;;;;;3.90;1.70;;;;;;;23.67;27.35;97946.41;10539844;28;20059;-73
2023/07/06 18:32:33;;;;;;;2.10;1.08;;;;;;;23.53;27.53;97943.97;10510711;28;20047;-73
2023/07/06 18:37:56;;;;;;;3.03;1.10;;;;;;;23.35;27.97;97954.97;10524937;28;20401;-74
2023/07/06 18:43:18;;;;;;;6.60;1.47;;;;;;;23.21;28.28;97957.56;10539543;28;20044;-73
2023/07/06 18:48:39;;;;;;;2.15;1.13;;;;;;;23.03;28.62;97955.75;10482640;28;20040;-73
2023/07/06 18:54:00;;;;;;;5.55;1.48;;;;;;;22.82;29.12;97962.38;10510003;28;20413;-74
2023/07/06 18:59:21;;;;;;;5.65;1.67;;;;;;;22.59;29.31;97966.84;10510158;28;20496;-73
2023/07/06 19:04:43;;;;;;;4.47;1.52;;;;;;;22.36;29.83;97970.53;10510018;28;20079;-73
2023/07/06 19:10:04;;;;;;;3.50;1.55;;;;;;;22.09;30.46;97977.66;10510788;28;20382;-73
2023/07/06 19:15:26;;;;;;;6.70;1.73;;;;;;;21.88;31.31;97988.47;10538800;28;20436;-74
2023/07/06 19:20:47;;;;;;;2.85;1.60;;;;;;;21.71;31.55;97997.94;10509933;28;20043;-74
2023/07/06 19:26:09;;;;;;;4.00;1.30;;;;;;;21.53;31.84;98008.81;10496011;28;20075;-74
2023/07/06 19:31:30;;;;;;;3.05;1.67;;;;;;;21.25;32.42;98011.50;10526190;28;20097;-74
2023/07/06 19:36:50;;;;;;;4.60;1.70;;;;;;;20.98;32.84;98013.53;10531170;28;20402;-73
2023/07/06 19:42:11;;;;;;;4.97;1.75;;;;;;;20.88;33.41;98021.00;10545976;28;20047;-73
2023/07/06 19:47:32;;;;;;;6.15;1.40;;;;;;;20.82;33.92;98030.78;10516743;28;20074;-74
2023/07/06 19:52:52;;;;;;;5.07;2.00;;;;;;;20.78;34.32;98032.75;10530367;28;20040;-74
2023/07/06 19:58:13;;;;;;;3.50;1.40;;;;;;;20.71;34.41;98037.50;10545438;28;20129;-74
2023/07/06 20:03:34;;;;;;;3.20;1.70;;;;;;;20.67;34.80;98045.16;10530240;28;20127;-74
2023/07/06 20:08:54;;;;;;;2.55;1.25;;;;;;;20.63;34.95;98048.59;10501954;28;20068;-73
2023/07/06 20:14:15;;;;;;;3.67;1.55;;;;;;;20.57;35.10;98054.81;10529777;28;20068;-74
2023/07/06 20:19:36;;;;;;;6.93;1.85;;;;;;;20.51;35.47;98060.25;10544482;28;20071;-73
2023/07/06 20:24:56;;;;;;;4.32;1.33;;;;;;;20.46;35.14;98052.25;10544394;28;20047;-74
2023/07/06 20:30:17;;;;;;;2.63;1.25;;;;;;;20.43;35.16;98062.09;10528833;28;20063;-74
2023/07/06 20:35:39;;;;;;;4.28;1.58;;;;;;;20.37;35.24;98068.28;10543976;28;20489;-74
2023/07/06 20:41:00;;;;;;;4.90;1.42;;;;;;;20.30;35.16;98067.31;10528620;28;20067;-74
2023/07/06 20:46:20;;;;;;;3.92;1.30;;;;;;;20.22;35.64;98081.22;10542957;28;20078;-74
2023/07/06 20:51:41;;;;;;;2.85;1.63;;;;;;;20.11;35.52;98087.91;10528249;28;20169;-74
2023/07/06 20:57:02;;;;;;;3.05;1.58;;;;;;;20.01;36.14;98084.72;10542921;28;20047;-74
2023/07/06 21:02:22;;;;;;;4.30;1.38;;;;;;;19.95;36.08;98095.81;10527934;28;20071;-74
2023/07/06 21:07:43;;;;;;;3.67;1.60;;;;;;;19.89;36.54;98101.28;10527465;28;20043;-73
2023/07/06 21:13:04;;;;;;;4.05;1.60;;;;;;;19.80;36.68;98105.19;10542392;28;20129;-73
2023/07/06 21:18:25;;;;;;;7.28;1.70;;;;;;;19.70;37.38;98102.72;10513000;28;20093;-74
2023/07/06 21:23:45;;;;;;;4.78;1.95;;;;;;;19.62;37.20;98111.63;10498920;28;20072;-73
2023/07/06 21:29:07;;;;;;;3.47;1.88;;;;;;;19.55;37.64;98114.84;10526803;28;20063;-73
2023/07/06 21:34:28;;;;;;;2.47;1.30;;;;;;;19.45;37.98;98118.00;10526351;28;20040;-73
2023/07/06 21:39:48;;;;;;;5.40;1.67;;;;;;;19.38;38.18;98127.63;10498599;28;20401;-73
2023/07/06 21:45:09;;;;;;;3.97;1.80;;;;;;;19.25;38.62;98126.44;10511921;28;20052;-73
2023/07/06 21:50:29;;;;;;;4.50;1.55;;;;;;;19.22;38.84;98135.50;10541061;28;20489;-73
2023/07/06 21:55:50;;;;;;;4.88;1.38;;;;;;;19.16;38.83;98127.50;10539852;28;20120;-73
2023/07/06 22:01:11;;;;;;;5.03;1.20;;;;;;;19.06;39.35;98136.31;10525389;28;20123;-73
2023/07/06 22:06:33;;;;;;;3.63;1.58;;;;;;;18.98;39.29;98141.63;10511426;28;20063;-73
2023/07/06 22:11:54;;;;;;;3.97;1.77;;;;;;;18.91;39.90;98137.09;10511058;28;20129;-75
2023/07/06 22:17:15;;;;;;;3.15;1.67;;;;;;;18.84;40.21;98143.88;10525204;28;20111;-73
2023/07/06 22:22:35;;;;;;;4.00;1.50;;;;;;;18.80;40.52;98138.03;10525037;28;20069;-75
2023/07/06 22:27:56;;;;;;;3.70;1.48;;;;;;;18.74;40.74;98144.19;10511033;28;20102;-75
2023/07/06 22:33:17;;;;;;;3.65;1.40;;;;;;;18.66;40.91;98140.28;10510663;28;20107;-73
2023/07/06 22:38:38;;;;;;;4.20;1.45;;;;;;;18.58;41.25;98144.19;10539814;28;20481;-74
2023/07/06 22:43:59;;;;;;;3.97;1.40;;;;;;;18.56;41.34;98160.34;10497057;28;20182;-74
2023/07/06 22:49:24;;;;;;;5.00;1.60;;;;;;;18.47;41.66;98150.78;10524400;28;20060;-75
2023/07/06 22:54:46;;;;;;;4.03;1.40;;;;;;;18.40;41.91;98154.00;10524946;28;20494;-74
2023/07/06 23:00:09;;;;;;;2.83;1.40;;;;;;;18.33;42.14;98155.81;10524284;28;20489;-75
2023/07/06 23:05:30;;;;;;;3.67;1.23;;;;;;;18.24;42.42;98159.69;10511848;28;20059;-75
2023/07/06 23:10:52;;;;;;;4.50;1.35;;;;;;;18.16;42.41;98156.50;10518050;28;20072;-75
2023/07/06 23:16:13;;;;;;;5.47;1.35;;;;;;;18.14;42.70;98156.38;10547015;28;20044;-74
2023/07/06 23:21:40;;;;;;;5.57;1.60;;;;;;;18.05;42.95;98160.97;10531904;28;20120;-74
2023/07/06 23:27:01;;;;;;;3.03;1.30;;;;;;;18.00;43.22;98162.13;10505528;28;20115;-75
2023/07/06 23:32:22;;;;;;;5.88;1.35;;;;;;;17.93;43.65;98161.13;10517446;28;20491;-75
2023/07/06 23:37:45;;;;;;;3.72;1.27;;;;;;;17.84;43.60;98164.94;10517039;28;20116;-74
2023/07/06 23:43:05;;;;;;;5.13;1.58;;;;;;;17.75;44.13;98171.59;10503099;28;20641;-74
2023/07/06 23:48:27;;;;;;;4.43;1.90;;;;;;;17.66;44.16;98164.06;10516737;28;20507;-75
2023/07/06 23:53:47;;;;;;;4.63;1.33;;;;;;;17.55;44.35;98167.78;10502778;28;20127;-74
2023/07/06 23:59:08;;;;;;;5.85;1.25;;;;;;;17.43;44.86;98177.16;10516399;28;20460;-75
